createdAt,value
2023-02-28T00:00:53.309Z,4.80
2023-02-28T00:03:22.959Z,7.15
2023-02-28T00:05:52.424Z,4.50
2023-02-28T00:08:21.863Z,6.22
2023-02-28T00:10:51.285Z,5.90
2023-02-28T00:13:20.715Z,3.72
2023-02-28T00:16:02.816Z,5.75
2023-02-28T00:18:32.462Z,4.47
2023-02-28T00:21:02.184Z,5.90
2023-02-28T00:23:31.877Z,6.40
2023-02-28T00:26:01.365Z,7.07
2023-02-28T00:28:30.977Z,6.35
2023-02-28T00:31:03.788Z,4.97
2023-02-28T00:33:33.306Z,5.18
2023-02-28T00:36:11.354Z,5.40
2023-02-28T00:38:42.529Z,4.60
2023-02-28T00:41:12.617Z,5.45
2023-02-28T00:43:42.637Z,4.43
2023-02-28T00:46:15.588Z,5.40
2023-02-28T00:48:45.194Z,4.93
2023-02-28T00:51:14.696Z,5.60
2023-02-28T00:53:44.333Z,6.82
2023-02-28T00:56:14.597Z,4.03
2023-02-28T00:58:44.228Z,6.28
2023-02-28T01:01:15.680Z,5.13
2023-02-28T01:03:45.162Z,7.25
2023-02-28T01:06:14.625Z,9.35
2023-02-28T01:08:44.374Z,4.85
2023-02-28T01:11:18.258Z,7.00
2023-02-28T01:13:48.987Z,6.45
2023-02-28T01:16:20.164Z,9.73
2023-02-28T01:18:49.664Z,7.60
2023-02-28T01:21:23.361Z,6.20
2023-02-28T01:23:53.896Z,5.78
2023-02-28T01:26:25.042Z,5.25
2023-02-28T01:28:55.615Z,5.93
2023-02-28T01:31:27.128Z,5.22
2023-02-28T01:33:56.767Z,5.13
2023-02-28T01:36:27.792Z,5.22
2023-02-28T01:38:58.906Z,8.93
2023-02-28T01:41:33.480Z,4.72
2023-02-28T01:44:08.504Z,6.75
2023-02-28T01:46:39.321Z,5.35
2023-02-28T01:49:15.663Z,6.20
2023-02-28T01:51:52.351Z,5.30
2023-02-28T01:54:28.043Z,6.95
2023-02-28T01:57:03.223Z,8.43
2023-02-28T01:59:41.527Z,6.50
2023-02-28T02:02:12.706Z,7.05
2023-02-28T02:04:53.189Z,4.63
2023-02-28T02:07:25.839Z,6.25
2023-02-28T02:10:06.545Z,5.68
2023-02-28T02:13:27.066Z,5.30
2023-02-28T02:16:10.967Z,7.43
2023-02-28T02:18:49.191Z,7.63
2023-02-28T02:22:33.682Z,9.35
2023-02-28T02:25:23.801Z,7.53
2023-02-28T02:28:47.451Z,7.78
2023-02-28T02:31:54.114Z,5.45
2023-02-28T02:34:44.776Z,5.72
2023-02-28T02:37:29.988Z,6.25
2023-02-28T02:40:12.409Z,8.68
2023-02-28T02:42:53.071Z,5.47
2023-02-28T02:45:29.533Z,6.75
2023-02-28T02:48:01.801Z,4.68
2023-02-28T02:50:41.495Z,8.45
2023-02-28T02:53:13.254Z,7.45
2023-02-28T02:55:48.606Z,6.40
2023-02-28T02:58:24.640Z,7.57
2023-02-28T03:01:00.252Z,4.40
2023-02-28T03:03:32.528Z,7.32
2023-02-28T03:06:05.136Z,5.95
2023-02-28T03:08:39.443Z,7.65
2023-02-28T03:11:15.854Z,6.63
2023-02-28T03:14:16.482Z,6.45
2023-02-28T03:17:25.799Z,7.65
2023-02-28T03:20:09.019Z,6.88
2023-02-28T03:23:00.722Z,6.57
2023-02-28T03:25:40.464Z,7.65
2023-02-28T03:28:18.071Z,9.82
2023-02-28T03:30:54.736Z,6.43
2023-02-28T03:33:30.556Z,6.68
2023-02-28T03:36:06.779Z,9.73
2023-02-28T03:38:42.526Z,6.85
2023-02-28T03:41:19.080Z,8.25
2023-02-28T03:43:55.836Z,6.22
2023-02-28T03:46:31.009Z,8.30
2023-02-28T03:49:10.349Z,10.68
2023-02-28T03:51:42.785Z,8.75
2023-02-28T03:54:20.258Z,8.90
2023-02-28T03:56:57.640Z,7.85
2023-02-28T03:59:34.599Z,6.97
2023-02-28T04:02:04.595Z,8.68
2023-02-28T04:04:34.351Z,9.15
2023-02-28T04:07:08.402Z,7.97
2023-02-28T04:09:39.758Z,10.02
2023-02-28T04:12:10.246Z,7.45
2023-02-28T04:14:39.744Z,10.63
2023-02-28T04:17:09.284Z,8.35
2023-02-28T04:19:39.050Z,8.43
2023-02-28T04:22:09.988Z,8.00
2023-02-28T04:24:42.299Z,8.18
2023-02-28T04:27:12.041Z,9.93
2023-02-28T04:29:45.532Z,8.73
2023-02-28T04:32:15.728Z,8.40
2023-02-28T04:34:45.287Z,8.88
2023-02-28T04:37:14.676Z,9.57
2023-02-28T04:39:46.041Z,8.02
2023-02-28T04:42:15.793Z,9.00
2023-02-28T04:44:45.217Z,10.73
2023-02-28T04:47:14.709Z,10.30
2023-02-28T04:49:44.117Z,10.98
2023-02-28T04:52:14.219Z,8.60
2023-02-28T04:54:45.050Z,10.90
2023-02-28T04:57:15.123Z,9.35
2023-02-28T04:59:45.081Z,11.70
2023-02-28T05:02:14.591Z,10.07
2023-02-28T05:04:44.071Z,12.45
2023-02-28T05:07:13.585Z,10.95
2023-02-28T05:09:44.371Z,14.45
2023-02-28T05:12:13.839Z,10.82
2023-02-28T05:14:43.590Z,10.35
2023-02-28T05:17:13.142Z,10.38
2023-02-28T05:19:42.574Z,10.52
2023-02-28T05:22:17.317Z,10.32
2023-02-28T05:24:48.096Z,12.98
2023-02-28T05:27:17.491Z,12.65
2023-02-28T05:29:47.187Z,11.82
2023-02-28T05:32:17.719Z,9.38
2023-02-28T05:34:47.426Z,12.25
2023-02-28T05:37:17.591Z,11.55
2023-02-28T05:39:48.446Z,11.35
2023-02-28T05:42:17.957Z,13.02
2023-02-28T05:44:48.433Z,13.23
2023-02-28T05:47:17.910Z,12.48
2023-02-28T05:49:47.340Z,11.90
2023-02-28T05:52:17.404Z,12.35
2023-02-28T05:54:48.991Z,13.43
2023-02-28T05:57:24.385Z,14.50
2023-02-28T05:59:54.344Z,11.75
2023-02-28T06:02:23.867Z,13.05
2023-02-28T06:04:53.289Z,12.82
2023-02-28T06:07:23.397Z,14.20
2023-02-28T06:09:54.211Z,16.05
2023-02-28T06:12:23.664Z,15.48
2023-02-28T06:14:53.134Z,15.43
2023-02-28T06:17:22.741Z,12.55
2023-02-28T06:19:52.194Z,12.18
2023-02-28T06:22:21.611Z,14.52
2023-02-28T06:24:51.402Z,14.95
2023-02-28T06:27:23.040Z,13.90
2023-02-28T06:29:57.540Z,15.32
2023-02-28T06:32:28.085Z,15.68
2023-02-28T06:34:58.962Z,14.45
2023-02-28T06:37:28.502Z,14.45
2023-02-28T06:39:58.288Z,13.80
2023-02-28T06:42:31.908Z,12.85
2023-02-28T06:45:04.228Z,14.73
2023-02-28T06:47:34.143Z,15.70
2023-02-28T06:50:04.114Z,14.63
2023-02-28T06:52:33.902Z,15.70
2023-02-28T06:55:04.243Z,19.40
2023-02-28T06:57:37.842Z,15.68
2023-02-28T07:00:15.259Z,16.08
2023-02-28T07:02:44.896Z,16.77
2023-02-28T07:05:14.724Z,16.35
2023-02-28T07:07:46.355Z,20.30
2023-02-28T07:10:20.181Z,16.35
2023-02-28T07:12:52.333Z,17.90
2023-02-28T07:15:21.862Z,16.38
2023-02-28T07:17:51.610Z,17.25
2023-02-28T07:20:21.692Z,15.90
2023-02-28T07:22:57.056Z,14.35
2023-02-28T07:25:28.687Z,18.73
2023-02-28T07:28:01.255Z,14.35
2023-02-28T07:30:30.852Z,16.75
2023-02-28T07:33:00.376Z,20.63
2023-02-28T07:35:29.986Z,17.48
2023-02-28T07:38:00.607Z,17.77
2023-02-28T07:40:30.392Z,17.55
2023-02-28T07:43:02.323Z,23.45
2023-02-28T07:45:35.264Z,20.17
2023-02-28T07:48:05.321Z,23.67
2023-02-28T07:50:35.660Z,14.45
2023-02-28T07:53:05.527Z,21.05
2023-02-28T07:55:35.078Z,19.02
2023-02-28T07:58:06.122Z,18.60
2023-02-28T08:00:35.860Z,19.27
2023-02-28T08:03:05.586Z,18.52
2023-02-28T08:05:35.187Z,16.65
2023-02-28T08:08:04.883Z,22.23
2023-02-28T08:10:34.676Z,19.58
2023-02-28T08:13:05.900Z,18.70
2023-02-28T08:15:35.676Z,20.00
2023-02-28T08:18:05.561Z,22.15
2023-02-28T08:20:36.603Z,18.70
2023-02-28T08:23:06.760Z,21.63
2023-02-28T08:25:36.657Z,20.48
2023-02-28T08:28:09.882Z,17.85
2023-02-28T08:30:41.989Z,23.13
2023-02-28T08:33:12.487Z,21.48
2023-02-28T08:35:42.453Z,18.85
2023-02-28T08:38:12.293Z,22.42
2023-02-28T08:40:42.546Z,22.38
2023-02-28T08:43:13.901Z,18.45
2023-02-28T08:45:43.779Z,21.27
2023-02-28T08:48:14.621Z,18.88
2023-02-28T08:50:50.422Z,20.77
2023-02-28T08:53:26.120Z,19.75
2023-02-28T08:56:01.303Z,17.92
2023-02-28T08:58:32.584Z,21.73
2023-02-28T09:01:02.647Z,19.90
2023-02-28T09:03:32.151Z,21.17
2023-02-28T09:06:02.965Z,21.35
2023-02-28T09:08:33.133Z,26.85
2023-02-28T09:11:03.876Z,20.27
2023-02-28T09:13:35.487Z,20.00
2023-02-28T09:16:09.920Z,19.98
2023-02-28T09:18:40.917Z,18.90
2023-02-28T09:21:15.000Z,22.02
2023-02-28T09:23:46.262Z,17.73
2023-02-28T09:26:17.995Z,21.13
2023-02-28T09:28:48.946Z,17.80
2023-02-28T09:31:24.434Z,20.88
2023-02-28T09:33:57.813Z,19.85
2023-02-28T09:36:41.881Z,18.13
2023-02-28T09:39:16.576Z,19.88
2023-02-28T09:41:51.963Z,19.67
2023-02-28T09:44:34.035Z,23.67
2023-02-28T09:47:15.346Z,17.52
2023-02-28T09:49:50.047Z,20.98
2023-02-28T09:52:24.387Z,20.83
2023-02-28T09:54:55.865Z,21.20
2023-02-28T09:57:40.166Z,20.05
2023-02-28T10:00:20.771Z,18.92
2023-02-28T10:03:28.131Z,16.85
2023-02-28T10:06:07.993Z,20.17
2023-02-28T10:08:47.983Z,23.05
2023-02-28T10:11:21.672Z,16.80
2023-02-28T10:14:02.513Z,18.40
2023-02-28T10:16:39.909Z,18.95
2023-02-28T10:19:21.380Z,19.40
2023-02-28T10:22:00.284Z,18.52
2023-02-28T10:24:40.155Z,18.80
2023-02-28T10:27:19.639Z,20.50
2023-02-28T10:29:54.192Z,19.52
2023-02-28T10:32:31.042Z,17.42
2023-02-28T10:35:13.604Z,18.58
2023-02-28T10:37:48.848Z,16.52
2023-02-28T10:40:36.523Z,20.00
2023-02-28T10:43:18.180Z,17.48
2023-02-28T10:46:02.630Z,18.00
2023-02-28T10:48:40.203Z,15.90
2023-02-28T10:51:13.829Z,22.73
2023-02-28T10:54:02.673Z,19.05
2023-02-28T10:56:34.499Z,14.00
2023-02-28T10:59:28.741Z,17.85
2023-02-28T11:02:00.287Z,16.05
2023-02-28T11:04:41.890Z,18.70
2023-02-28T11:07:24.556Z,15.55
2023-02-28T11:09:58.574Z,18.40
2023-02-28T11:12:37.876Z,16.08
2023-02-28T11:15:28.378Z,18.30
2023-02-28T11:18:02.747Z,16.75
2023-02-28T11:20:36.622Z,16.85
2023-02-28T11:23:13.858Z,18.27
2023-02-28T11:25:54.794Z,20.52
2023-02-28T11:28:33.473Z,16.95
2023-02-28T11:31:18.012Z,19.88
2023-02-28T11:33:51.912Z,17.23
2023-02-28T11:36:26.945Z,20.67
2023-02-28T11:39:02.584Z,19.25
2023-02-28T11:42:09.400Z,18.02
2023-02-28T11:44:59.484Z,18.70
2023-02-28T11:47:41.176Z,17.38
2023-02-28T11:50:56.250Z,18.17
2023-02-28T11:53:54.472Z,16.50
2023-02-28T11:56:34.143Z,16.77
2023-02-28T11:59:36.739Z,15.77
2023-02-28T12:02:30.285Z,16.27
2023-02-28T12:05:25.078Z,17.42
2023-02-28T12:08:25.105Z,17.67
2023-02-28T12:11:14.597Z,18.00
2023-02-28T12:14:00.691Z,18.50
2023-02-28T12:16:48.395Z,15.93
2023-02-28T12:19:25.960Z,22.08
2023-02-28T12:22:27.672Z,20.48
2023-02-28T12:26:04.157Z,15.95
2023-02-28T12:28:42.144Z,15.32
2023-02-28T12:31:20.678Z,16.88
2023-02-28T12:33:59.509Z,15.82
2023-02-28T12:36:29.627Z,16.20
2023-02-28T12:39:07.683Z,19.30
2023-02-28T12:41:47.430Z,16.20
2023-02-28T12:44:24.189Z,13.80
2023-02-28T12:46:57.993Z,15.73
2023-02-28T12:49:36.143Z,16.50
2023-02-28T12:52:12.010Z,16.40
2023-02-28T12:54:56.384Z,18.13
2023-02-28T12:57:39.064Z,15.02
2023-02-28T13:00:16.994Z,21.92
2023-02-28T13:03:31.953Z,15.90
2023-02-28T13:06:31.150Z,16.05
2023-02-28T13:09:11.551Z,13.45
2023-02-28T13:11:45.743Z,15.38
2023-02-28T13:14:31.355Z,15.45
2023-02-28T13:17:14.051Z,14.77
2023-02-28T13:19:48.625Z,14.40
2023-02-28T13:22:41.975Z,15.60
2023-02-28T13:25:55.567Z,12.82
2023-02-28T13:29:26.692Z,13.70
2023-02-28T13:32:40.056Z,15.95
2023-02-28T13:35:40.491Z,13.52
2023-02-28T13:38:39.960Z,13.95
2023-02-28T13:41:46.276Z,14.25
2023-02-28T13:44:24.261Z,14.52
2023-02-28T13:47:31.898Z,13.93
2023-02-28T13:50:25.244Z,16.65
2023-02-28T13:53:41.764Z,15.02
2023-02-28T13:56:31.609Z,15.40
2023-02-28T13:59:18.624Z,13.88
2023-02-28T14:02:31.746Z,15.98
2023-02-28T14:05:08.911Z,14.18
2023-02-28T14:07:47.191Z,14.85
2023-02-28T14:10:41.493Z,14.05
2023-02-28T14:13:49.358Z,12.30
2023-02-28T14:16:23.690Z,13.85
2023-02-28T14:19:01.272Z,14.13
2023-02-28T14:21:35.270Z,13.07
2023-02-28T14:24:53.814Z,12.18
2023-02-28T14:27:39.427Z,14.18
2023-02-28T14:31:03.134Z,12.48
2023-02-28T14:34:07.291Z,15.33
2023-02-28T14:39:15.462Z,13.45
2023-02-28T14:41:47.096Z,14.35
2023-02-28T15:39:27.962Z,12.20
2023-02-28T15:42:13.087Z,14.95
2023-02-28T15:44:42.636Z,13.48
2023-02-28T15:47:21.856Z,12.30
2023-02-28T15:49:55.006Z,14.05
2023-02-28T15:52:33.440Z,12.05
2023-02-28T15:55:13.706Z,13.90
2023-02-28T15:57:43.664Z,11.77
2023-02-28T16:00:18.180Z,16.92
2023-02-28T16:02:51.991Z,13.70
2023-02-28T16:05:31.573Z,13.70
2023-02-28T16:08:08.791Z,11.05
2023-02-28T16:10:39.662Z,15.73
2023-02-28T16:13:16.147Z,14.43
2023-02-28T16:15:46.595Z,16.05
2023-02-28T16:18:16.502Z,15.65
2023-02-28T16:20:46.471Z,14.98
2023-02-28T16:23:21.438Z,15.50
2023-02-28T16:25:52.509Z,13.20
2023-02-28T16:28:30.863Z,14.70
2023-02-28T16:31:03.670Z,17.90
2023-02-28T16:33:34.402Z,17.92
2023-02-28T16:36:04.477Z,15.13
2023-02-28T16:38:59.349Z,22.05
2023-02-28T16:41:31.914Z,21.45
2023-02-28T16:44:02.833Z,27.42
2023-02-28T16:46:37.189Z,20.67
2023-02-28T16:49:06.746Z,19.15
2023-02-28T16:51:36.817Z,17.48
2023-02-28T16:54:07.047Z,17.60
2023-02-28T16:56:47.494Z,15.55
2023-02-28T16:59:24.423Z,14.85
2023-02-28T17:01:54.222Z,15.93
2023-02-28T17:04:23.908Z,14.15
2023-02-28T17:06:53.548Z,16.63
2023-02-28T17:09:36.555Z,18.13
2023-02-28T17:12:37.597Z,20.48
2023-02-28T17:15:10.653Z,23.65
2023-02-28T17:17:41.158Z,25.00
2023-02-28T17:20:16.275Z,28.33
2023-02-28T17:22:46.005Z,21.48
2023-02-28T17:25:15.614Z,24.17
2023-02-28T17:27:46.733Z,26.15
2023-02-28T17:30:20.141Z,24.70
2023-02-28T17:35:44.311Z,26.23
2023-02-28T17:38:39.083Z,26.20
2023-02-28T17:41:09.924Z,22.98
2023-02-28T17:43:41.869Z,24.05
2023-02-28T17:46:21.599Z,22.60
2023-02-28T17:48:52.364Z,22.95
2023-02-28T17:51:48.081Z,22.00
2023-02-28T17:54:19.147Z,25.30
2023-02-28T17:56:49.179Z,29.70
2023-02-28T17:59:20.429Z,21.73
2023-02-28T18:01:50.055Z,21.42
2023-02-28T18:05:01.237Z,24.42
2023-02-28T18:07:30.772Z,26.23
2023-02-28T18:10:28.429Z,23.20
2023-02-28T18:12:58.057Z,27.55
2023-02-28T18:15:43.874Z,26.67
2023-02-28T18:18:13.526Z,30.13
2023-02-28T18:20:43.202Z,31.92
2023-02-28T18:23:12.894Z,31.95
2023-02-28T18:25:42.626Z,31.60
2023-02-28T18:28:12.184Z,31.67
2023-02-28T18:30:44.318Z,28.98
2023-02-28T18:33:14.089Z,21.98
2023-02-28T18:35:44.777Z,24.23
2023-02-28T18:38:19.296Z,26.33
2023-02-28T18:40:55.485Z,23.38
2023-02-28T18:43:25.172Z,25.50
2023-02-28T18:45:56.335Z,24.95
2023-02-28T18:48:26.281Z,25.17
2023-02-28T18:50:55.856Z,22.70
2023-02-28T18:53:56.205Z,24.67
2023-02-28T18:56:27.613Z,19.42
2023-02-28T18:58:57.348Z,20.33
2023-02-28T19:01:32.073Z,24.40
2023-02-28T19:04:03.669Z,22.92
2023-02-28T19:06:34.591Z,22.23
2023-02-28T19:09:06.607Z,27.33
2023-02-28T19:11:36.876Z,26.05
2023-02-28T19:14:06.772Z,28.15
2023-02-28T19:16:38.047Z,21.27
2023-02-28T19:19:07.666Z,22.08
2023-02-28T19:21:37.493Z,21.48
2023-02-28T19:24:08.013Z,26.92
2023-02-28T19:26:37.711Z,26.60
2023-02-28T19:29:07.579Z,25.67
2023-02-28T19:31:38.939Z,23.83
2023-02-28T19:34:08.613Z,22.48
2023-02-28T19:36:38.362Z,23.27
2023-02-28T19:39:08.513Z,26.10
2023-02-28T19:41:38.184Z,23.92
2023-02-28T19:44:07.875Z,22.50
2023-02-28T19:46:39.257Z,24.60
2023-02-28T19:49:09.057Z,23.73
2023-02-28T19:51:39.478Z,22.70
2023-02-28T19:54:09.930Z,27.40
2023-02-28T19:56:40.135Z,20.02
2023-02-28T19:59:21.044Z,22.92
2023-02-28T20:01:56.288Z,28.95
2023-02-28T20:04:28.303Z,21.70
2023-02-28T20:06:58.127Z,22.85
2023-02-28T20:09:32.165Z,24.15
2023-02-28T20:12:02.594Z,24.00
2023-02-28T20:14:33.531Z,24.17
2023-02-28T20:17:04.605Z,26.60
2023-02-28T20:19:34.214Z,23.23
2023-02-28T20:22:03.938Z,24.15
2023-02-28T20:24:33.719Z,22.17
2023-02-28T20:27:03.964Z,23.00
2023-02-28T20:29:35.102Z,24.55
2023-02-28T20:32:08.235Z,21.92
2023-02-28T20:34:38.118Z,24.88
2023-02-28T20:37:08.927Z,20.02
2023-02-28T20:39:38.557Z,23.95
2023-02-28T20:42:11.139Z,23.17
2023-02-28T20:44:41.129Z,22.88
2023-02-28T20:47:14.880Z,25.77
2023-02-28T20:49:44.565Z,22.48
2023-02-28T20:52:14.674Z,24.80
2023-02-28T20:54:44.325Z,23.02
2023-02-28T20:57:14.165Z,21.85
2023-02-28T20:59:43.870Z,22.98
2023-02-28T21:02:18.219Z,24.00
2023-02-28T21:04:48.095Z,21.77
2023-02-28T21:07:17.666Z,25.05
2023-02-28T21:09:47.296Z,21.88
2023-02-28T21:12:17.001Z,21.25
2023-02-28T21:14:46.749Z,23.35
2023-02-28T21:17:17.765Z,22.30
2023-02-28T21:19:48.011Z,20.23
2023-02-28T21:22:17.660Z,26.45
2023-02-28T21:24:47.329Z,21.15
2023-02-28T21:27:16.911Z,23.38
2023-02-28T21:29:46.421Z,21.25
2023-02-28T21:32:17.889Z,27.52
2023-02-28T21:34:48.032Z,23.58
2023-02-28T21:37:17.694Z,26.13
2023-02-28T21:39:47.410Z,22.23
2023-02-28T21:42:17.026Z,26.30
2023-02-28T21:44:47.197Z,24.67
2023-02-28T21:47:18.016Z,26.48
2023-02-28T21:49:47.518Z,21.45
2023-02-28T21:52:21.828Z,23.83
2023-02-28T21:54:51.361Z,26.70
2023-02-28T21:57:20.925Z,22.15
2023-02-28T21:59:50.821Z,22.38
2023-02-28T22:02:21.912Z,22.02
2023-02-28T22:04:51.874Z,22.50
2023-02-28T22:07:21.556Z,26.73
2023-02-28T22:09:51.593Z,26.73
2023-02-28T22:12:21.430Z,22.67
2023-02-28T22:14:51.613Z,22.70
2023-02-28T22:17:23.248Z,24.27
2023-02-28T22:19:52.964Z,21.38
2023-02-28T22:22:22.556Z,23.38
2023-02-28T22:24:52.236Z,25.88
2023-02-28T22:27:22.115Z,24.08
2023-02-28T22:29:52.129Z,21.65
2023-02-28T22:32:23.784Z,21.08
2023-02-28T22:34:54.070Z,23.10
2023-02-28T22:37:23.817Z,26.25
2023-02-28T22:39:53.518Z,23.13
2023-02-28T22:42:23.133Z,20.75
2023-02-28T22:44:53.217Z,25.58
2023-02-28T22:47:26.508Z,23.20
2023-02-28T22:49:56.155Z,21.63
2023-02-28T22:52:25.804Z,22.95
2023-02-28T22:54:55.596Z,24.38
2023-02-28T22:57:25.324Z,23.58
2023-02-28T22:59:55.046Z,22.40
2023-02-28T23:02:26.255Z,23.88
2023-02-28T23:04:56.668Z,24.88
2023-02-28T23:07:31.650Z,25.70
2023-02-28T23:10:01.517Z,25.27
2023-02-28T23:12:31.168Z,25.95
2023-02-28T23:15:01.300Z,22.85
2023-02-28T23:17:34.343Z,24.38
2023-02-28T23:20:04.837Z,20.65
2023-02-28T23:22:34.660Z,24.13
2023-02-28T23:25:04.666Z,24.90
2023-02-28T23:27:34.278Z,22.60
2023-02-28T23:30:04.447Z,21.80
2023-02-28T23:32:35.523Z,23.67
2023-02-28T23:35:07.018Z,24.58
2023-02-28T23:37:37.706Z,22.40
2023-02-28T23:40:12.797Z,23.20
2023-02-28T23:42:42.207Z,25.67
2023-02-28T23:45:12.533Z,24.10
2023-02-28T23:47:43.382Z,23.67
2023-02-28T23:50:13.639Z,24.48
2023-02-28T23:52:43.587Z,22.02
2023-02-28T23:55:13.244Z,21.23
2023-02-28T23:57:42.854Z,24.35
